Time;durP1;ratioP1;P1;durP2;ratioP2;P2;SDS_P1;SDS_P2;PMS_P1;PMS_P2;Temp;Humidity;BMP_temperature;BMP_pressure;BME280_temperature;BME280_humidity;BME280_pressure;Samples;Min_cycle;Max_cycle;Signal;HPM_P1;HPM_P2
2023/03/09 00:01:20;;;;;;;6.47;4.50;;;1.90;99.90;;;;;;4843261;29;20854;-58
2023/03/09 00:03:49;;;;;;;7.13;5.10;;;2.00;99.90;;;;;;4843495;29;20470;-57
2023/03/09 00:06:17;;;;;;;6.23;5.10;;;2.00;99.90;;;;;;4843579;29;20579;-58
2023/03/09 00:08:47;;;;;;;7.63;5.60;;;2.10;99.90;;;;;;4843111;29;21025;-57
2023/03/09 00:11:17;;;;;;;9.13;5.73;;;2.00;99.90;;;;;;4847269;29;20476;-58
2023/03/09 00:13:47;;;;;;;7.43;5.13;;;2.00;99.90;;;;;;4853549;29;20483;-58
2023/03/09 00:16:17;;;;;;;7.87;4.90;;;1.90;99.90;;;;;;4860690;29;20480;-58
2023/03/09 00:18:45;;;;;;;7.93;5.60;;;1.90;99.90;;;;;;4846299;29;20822;-57
2023/03/09 00:21:33;;;;;;;6.37;4.60;;;1.90;99.90;;;;;;4842999;29;20476;-58
2023/03/09 00:24:01;;;;;;;8.10;5.50;;;1.90;99.90;;;;;;4854553;29;20989;-58
2023/03/09 00:26:31;;;;;;;5.83;4.40;;;2.00;99.90;;;;;;4855632;29;20481;-58
2023/03/09 00:28:59;;;;;;;7.80;5.23;;;2.10;99.90;;;;;;4844810;29;20472;-58
2023/03/09 00:31:27;;;;;;;7.83;5.73;;;2.00;99.90;;;;;;4842454;29;20516;-58
2023/03/09 00:33:56;;;;;;;8.83;5.13;;;1.90;99.90;;;;;;4842905;29;20467;-58
2023/03/09 00:36:24;;;;;;;6.93;5.47;;;2.00;99.90;;;;;;4842724;29;20950;-55
2023/03/09 00:38:52;;;;;;;8.53;6.50;;;1.90;99.90;;;;;;4842536;29;20472;-58
2023/03/09 00:41:22;;;;;;;6.33;4.90;;;1.80;99.90;;;;;;4847288;29;20822;-58
2023/03/09 00:43:51;;;;;;;8.33;5.60;;;1.80;99.90;;;;;;4852058;29;20844;-58
2023/03/09 00:46:19;;;;;;;8.80;5.70;;;1.90;99.90;;;;;;4861044;29;20472;-58
2023/03/09 00:48:48;;;;;;;8.50;6.10;;;2.00;99.90;;;;;;4845381;29;20458;-58
2023/03/09 00:51:16;;;;;;;10.13;6.33;;;2.00;99.90;;;;;;4842561;29;20507;-58
2023/03/09 00:53:44;;;;;;;8.37;5.63;;;2.00;99.90;;;;;;4849904;29;20460;-57
2023/03/09 00:56:16;;;;;;;7.40;5.70;;;2.00;99.90;;;;;;4868512;29;20573;-58
2023/03/09 00:58:45;;;;;;;9.90;5.97;;;2.10;99.90;;;;;;4844832;29;20473;-58
2023/03/09 01:01:16;;;;;;;8.83;6.47;;;2.20;99.90;;;;;;4840786;29;20489;-58
2023/03/09 01:03:45;;;;;;;7.83;5.97;;;1.90;99.90;;;;;;4841002;29;20892;-58
2023/03/09 01:06:14;;;;;;;8.63;5.60;;;2.00;99.90;;;;;;4842326;29;20528;-58
2023/03/09 01:08:42;;;;;;;8.80;6.50;;;1.90;99.90;;;;;;4841848;29;20472;-58
2023/03/09 01:11:14;;;;;;;8.30;5.70;;;2.10;99.90;;;;;;4845878;29;20480;-58
2023/03/09 01:13:42;;;;;;;5.73;4.73;;;2.00;99.90;;;;;;4852522;29;20493;-58
2023/03/09 01:16:11;;;;;;;7.83;6.47;;;2.00;99.90;;;;;;4859369;29;20849;-58
2023/03/09 01:18:41;;;;;;;7.57;5.60;;;2.10;99.90;;;;;;4845592;29;20481;-58
2023/03/09 01:21:09;;;;;;;6.90;5.70;;;2.10;99.90;;;;;;4840945;29;20482;-58
2023/03/09 01:23:38;;;;;;;9.17;6.07;;;2.10;99.90;;;;;;4853680;29;20476;-58
2023/03/09 01:26:08;;;;;;;7.87;6.00;;;2.00;99.90;;;;;;4846079;29;20471;-56
2023/03/09 01:28:37;;;;;;;7.80;5.73;;;1.80;99.90;;;;;;4847495;29;20920;-58
2023/03/09 01:31:10;;;;;;;8.97;5.87;;;1.90;99.90;;;;;;4840532;29;20582;-58
2023/03/09 01:33:43;;;;;;;8.63;6.33;;;2.00;99.90;;;;;;4840511;29;20524;-57
2023/03/09 01:36:14;;;;;;;9.97;5.90;;;1.90;99.90;;;;;;4840693;29;20494;-58
2023/03/09 01:38:42;;;;;;;8.83;5.63;;;2.00;99.90;;;;;;4840583;29;20576;-58
2023/03/09 01:41:11;;;;;;;6.73;5.87;;;2.00;99.90;;;;;;4844010;29;20481;-58
2023/03/09 01:43:40;;;;;;;10.00;6.20;;;1.90;99.90;;;;;;4852419;29;20528;-58
2023/03/09 01:46:34;;;;;;;8.97;6.80;;;2.00;99.90;;;;;;4860295;29;20503;-58
2023/03/09 01:49:13;;;;;;;7.37;5.63;;;1.80;99.90;;;;;;4831524;29;20490;-58
2023/03/09 01:51:47;;;;;;;8.70;5.63;;;1.70;99.90;;;;;;4840401;29;20488;-58
2023/03/09 01:54:21;;;;;;;8.23;6.40;;;1.70;99.90;;;;;;4853395;29;20500;-58
2023/03/09 01:56:53;;;;;;;7.43;5.83;;;1.70;99.90;;;;;;4857272;29;20511;-57
2023/03/09 01:59:25;;;;;;;7.87;4.67;;;1.70;99.90;;;;;;4840930;29;20477;-57
2023/03/09 02:01:53;;;;;;;8.03;5.47;;;1.90;99.90;;;;;;4834230;29;20495;-58
2023/03/09 02:04:31;;;;;;;7.43;5.27;;;2.00;99.90;;;;;;4823794;29;20475;-58
2023/03/09 02:07:00;;;;;;;7.83;6.10;;;2.00;99.90;;;;;;4824917;29;20496;-58
2023/03/09 02:09:38;;;;;;;7.97;5.50;;;2.00;99.90;;;;;;4840280;29;21019;-57
2023/03/09 02:12:12;;;;;;;8.67;6.13;;;2.00;99.90;;;;;;4850896;29;20494;-58
2023/03/09 02:14:41;;;;;;;8.10;5.37;;;1.80;99.90;;;;;;4850798;29;20897;-58
2023/03/09 02:17:11;;;;;;;8.43;5.70;;;1.80;99.90;;;;;;4857794;29;20899;-57
2023/03/09 02:19:54;;;;;;;7.40;5.47;;;1.80;99.90;;;;;;4822327;29;20479;-58
2023/03/09 02:22:22;;;;;;;7.90;4.37;;;1.60;99.90;;;;;;4825470;29;20970;-58
2023/03/09 02:24:59;;;;;;;8.73;5.60;;;1.60;99.90;;;;;;4849684;29;20515;-57
2023/03/09 02:27:30;;;;;;;6.87;5.50;;;1.60;99.90;;;;;;4855645;29;20584;-58
2023/03/09 02:29:58;;;;;;;7.73;5.80;;;1.60;99.90;;;;;;4840306;29;20473;-58
2023/03/09 02:32:31;;;;;;;7.40;5.43;;;1.60;99.90;;;;;;4842056;29;20493;-58
2023/03/09 02:34:59;;;;;;;8.87;6.23;;;1.60;99.90;;;;;;4840240;29;20887;-58
2023/03/09 02:37:32;;;;;;;6.97;5.53;;;1.50;99.90;;;;;;4839843;29;20512;-58
2023/03/09 02:40:12;;;;;;;9.83;6.07;;;1.50;99.90;;;;;;4842869;29;20486;-58
2023/03/09 02:42:43;;;;;;;8.63;5.63;;;1.50;99.90;;;;;;4850915;29;20478;-58
2023/03/09 02:45:16;;;;;;;6.53;5.13;;;1.40;99.90;;;;;;4855621;29;20567;-56
2023/03/09 02:47:46;;;;;;;8.90;5.87;;;1.50;99.90;;;;;;4847182;29;20505;-58
2023/03/09 02:50:16;;;;;;;7.83;5.50;;;1.40;99.90;;;;;;4843509;29;20575;-58
2023/03/09 02:52:44;;;;;;;7.40;5.80;;;1.40;99.90;;;;;;4845152;29;21170;-56
2023/03/09 02:55:13;;;;;;;7.37;5.93;;;1.30;99.90;;;;;;4853943;29;20468;-58
2023/03/09 02:57:44;;;;;;;7.57;6.07;;;1.30;99.90;;;;;;4848865;29;20480;-58
2023/03/09 03:00:17;;;;;;;7.30;6.23;;;1.30;99.90;;;;;;4842560;29;20491;-58
2023/03/09 03:02:45;;;;;;;9.50;6.47;;;1.30;99.90;;;;;;4838577;29;20506;-58
2023/03/09 03:05:13;;;;;;;7.23;5.90;;;1.40;99.90;;;;;;4825970;29;20471;-58
2023/03/09 03:07:43;;;;;;;9.67;6.00;;;1.40;99.90;;;;;;4836714;29;20493;-58
2023/03/09 03:10:12;;;;;;;8.27;6.10;;;1.40;99.90;;;;;;4843062;29;20534;-58
2023/03/09 03:12:40;;;;;;;7.97;6.47;;;1.40;99.90;;;;;;4850307;29;20515;-58
2023/03/09 03:15:11;;;;;;;11.03;6.63;;;1.40;99.90;;;;;;4850605;29;20527;-57
2023/03/09 03:17:39;;;;;;;8.57;5.90;;;1.50;99.90;;;;;;4824764;29;20530;-57
2023/03/09 03:20:13;;;;;;;9.07;5.90;;;1.40;99.90;;;;;;4824613;29;20474;-58
2023/03/09 03:22:44;;;;;;;7.97;6.13;;;1.30;99.90;;;;;;4834004;29;20552;-58
2023/03/09 03:25:16;;;;;;;8.63;5.60;;;1.30;99.90;;;;;;4853253;29;20902;-57
2023/03/09 03:27:46;;;;;;;11.07;6.50;;;1.30;99.90;;;;;;4840166;29;20477;-58
2023/03/09 03:30:17;;;;;;;7.80;6.00;;;1.20;99.90;;;;;;4842309;29;20874;-58
2023/03/09 03:32:52;;;;;;;7.53;5.70;;;1.30;99.90;;;;;;4842463;29;20492;-58
2023/03/09 03:35:23;;;;;;;8.70;6.20;;;1.30;99.90;;;;;;4842541;29;20517;-58
2023/03/09 03:37:52;;;;;;;8.23;5.67;;;1.40;99.90;;;;;;4843727;29;20507;-58
2023/03/09 03:40:20;;;;;;;6.93;5.40;;;1.50;99.90;;;;;;4842506;29;20889;-58
2023/03/09 03:42:51;;;;;;;7.83;6.00;;;1.40;99.90;;;;;;4849998;29;20507;-58
2023/03/09 03:45:21;;;;;;;6.70;5.57;;;1.30;99.90;;;;;;4855511;29;20844;-58
2023/03/09 03:47:50;;;;;;;7.50;5.90;;;1.30;99.90;;;;;;4839360;29;20895;-58
2023/03/09 03:50:18;;;;;;;7.37;5.73;;;1.30;99.90;;;;;;4824044;29;20581;-58
2023/03/09 03:52:53;;;;;;;7.73;5.87;;;1.20;99.90;;;;;;4851194;29;20499;-59
2023/03/09 03:55:21;;;;;;;7.50;5.77;;;1.30;99.90;;;;;;4852944;29;20512;-59
2023/03/09 03:57:50;;;;;;;7.93;5.77;;;1.20;99.90;;;;;;4843367;29;20495;-58
2023/03/09 04:00:19;;;;;;;7.10;5.67;;;1.20;99.90;;;;;;4841851;29;20568;-57
2023/03/09 04:02:51;;;;;;;9.10;5.80;;;1.20;99.90;;;;;;4842100;29;20484;-58
2023/03/09 04:05:24;;;;;;;8.50;5.53;;;1.30;99.90;;;;;;4842050;29;20477;-57
2023/03/09 04:07:52;;;;;;;8.07;6.00;;;1.40;99.90;;;;;;4843057;29;20469;-58
2023/03/09 04:10:23;;;;;;;7.27;5.83;;;1.50;99.90;;;;;;4842013;29;20472;-58
2023/03/09 04:12:51;;;;;;;7.97;5.67;;;1.40;99.90;;;;;;4849605;29;20477;-58
2023/03/09 04:15:19;;;;;;;6.77;5.67;;;1.30;99.90;;;;;;4855937;29;20495;-58
2023/03/09 04:17:51;;;;;;;6.97;5.53;;;1.40;99.90;;;;;;4842376;29;21136;-58
2023/03/09 04:20:20;;;;;;;6.83;4.87;;;1.30;99.90;;;;;;4842113;29;20487;-59
2023/03/09 04:22:50;;;;;;;8.20;5.47;;;1.30;99.90;;;;;;4847435;29;20472;-58
2023/03/09 04:25:21;;;;;;;7.87;6.23;;;1.30;99.90;;;;;;4853679;29;20504;-58
2023/03/09 04:27:51;;;;;;;7.37;5.43;;;1.30;99.90;;;;;;4843529;29;20487;-59
2023/03/09 04:30:27;;;;;;;8.40;6.43;;;1.30;99.90;;;;;;4842458;29;20995;-61
2023/03/09 04:32:59;;;;;;;8.93;6.30;;;1.30;99.90;;;;;;4845419;29;20500;-59
2023/03/09 04:35:28;;;;;;;11.90;6.83;;;1.30;99.90;;;;;;4844151;29;20497;-57
2023/03/09 04:37:59;;;;;;;8.10;5.23;;;1.20;99.90;;;;;;4838069;29;20477;-58
2023/03/09 04:40:28;;;;;;;9.90;6.63;;;1.30;99.90;;;;;;4843092;29;20531;-58
2023/03/09 04:42:58;;;;;;;9.30;6.60;;;1.30;99.90;;;;;;4849122;29;20989;-58
2023/03/09 04:45:26;;;;;;;8.53;6.50;;;1.20;99.90;;;;;;4856392;29;20981;-58
2023/03/09 04:47:56;;;;;;;9.90;7.17;;;1.20;99.90;;;;;;4841915;29;20992;-58
2023/03/09 04:50:26;;;;;;;9.03;6.33;;;1.20;99.90;;;;;;4841302;29;21009;-57
2023/03/09 04:52:58;;;;;;;9.60;7.33;;;1.30;99.90;;;;;;4847937;29;20511;-58
2023/03/09 04:55:28;;;;;;;9.77;7.17;;;1.30;99.90;;;;;;4851667;29;20483;-58
2023/03/09 04:57:59;;;;;;;9.87;7.43;;;1.30;99.90;;;;;;4841665;29;20484;-58
2023/03/09 05:00:27;;;;;;;8.50;6.70;;;1.20;99.90;;;;;;4840716;29;20564;-58
2023/03/09 05:02:56;;;;;;;10.47;7.57;;;1.20;99.90;;;;;;4840684;29;20478;-57
2023/03/09 05:05:26;;;;;;;10.43;6.90;;;1.20;99.90;;;;;;4840751;29;20469;-56
2023/03/09 05:07:57;;;;;;;8.63;6.67;;;1.30;99.90;;;;;;4855300;29;20469;-58
2023/03/09 05:10:26;;;;;;;10.90;7.83;;;1.30;99.90;;;;;;4840862;29;20484;-56
2023/03/09 05:12:57;;;;;;;10.23;7.20;;;1.30;99.90;;;;;;4848430;29;20481;-58
2023/03/09 05:15:27;;;;;;;8.67;6.70;;;1.20;99.90;;;;;;4854702;29;20899;-58
2023/03/09 05:17:57;;;;;;;11.30;7.60;;;1.30;99.90;;;;;;4841906;29;20481;-58
2023/03/09 05:20:28;;;;;;;10.63;7.67;;;1.30;99.90;;;;;;4840809;29;20576;-57
2023/03/09 05:23:02;;;;;;;9.10;6.97;;;1.30;99.90;;;;;;4847881;29;20511;-58
2023/03/09 05:25:31;;;;;;;11.00;7.83;;;1.30;99.90;;;;;;4851426;29;20562;-58
2023/03/09 05:28:02;;;;;;;10.00;6.80;;;1.20;99.90;;;;;;4841434;29;20975;-58
2023/03/09 05:30:32;;;;;;;12.63;7.17;;;1.30;99.90;;;;;;4840275;29;20551;-58
2023/03/09 05:33:04;;;;;;;12.97;7.70;;;1.20;99.90;;;;;;4839967;29;20485;-58
2023/03/09 05:35:36;;;;;;;10.57;7.27;;;1.20;99.90;;;;;;4830253;29;21037;-58
2023/03/09 05:38:07;;;;;;;10.83;7.90;;;1.30;99.90;;;;;;4834953;29;20492;-58
2023/03/09 05:40:36;;;;;;;10.03;8.03;;;1.20;99.90;;;;;;4862214;29;20507;-58
2023/03/09 05:43:08;;;;;;;12.03;7.57;;;1.20;99.90;;;;;;4849494;29;20481;-58
2023/03/09 05:45:37;;;;;;;9.47;7.30;;;1.20;99.90;;;;;;4856333;29;20489;-59
2023/03/09 05:48:07;;;;;;;11.30;7.77;;;1.30;99.90;;;;;;4861123;29;21031;-59
2023/03/09 05:50:39;;;;;;;10.53;6.07;;;1.30;99.90;;;;;;4843044;29;20498;-58
2023/03/09 05:53:08;;;;;;;9.77;7.90;;;1.40;99.90;;;;;;4849269;29;20545;-59
2023/03/09 05:55:36;;;;;;;11.03;8.47;;;1.30;99.90;;;;;;4845853;29;20592;-58
2023/03/09 05:58:05;;;;;;;11.60;7.73;;;1.20;99.90;;;;;;4840674;29;20890;-58
2023/03/09 06:00:33;;;;;;;10.23;8.00;;;1.20;99.90;;;;;;4836596;29;20615;-57
2023/03/09 06:03:03;;;;;;;9.57;7.73;;;1.20;99.90;;;;;;4825360;29;20995;-58
2023/03/09 06:05:43;;;;;;;11.00;8.33;;;1.20;99.90;;;;;;4855416;29;20523;-58
2023/03/09 06:08:12;;;;;;;12.07;8.57;;;1.30;99.90;;;;;;4840506;29;20579;-58
2023/03/09 06:10:41;;;;;;;10.00;6.93;;;1.20;99.90;;;;;;4839742;29;20472;-58
2023/03/09 06:13:12;;;;;;;16.03;8.50;;;1.30;99.90;;;;;;4842376;29;21050;-58
2023/03/09 06:15:41;;;;;;;13.03;8.20;;;1.40;99.90;;;;;;4855124;29;21031;-58
2023/03/09 06:18:12;;;;;;;11.73;8.07;;;1.30;99.90;;;;;;4850210;29;20479;-58
2023/03/09 06:20:40;;;;;;;12.90;9.20;;;1.20;99.90;;;;;;4847841;29;20483;-58
2023/03/09 06:23:10;;;;;;;10.87;8.57;;;1.20;99.90;;;;;;4853374;29;20482;-58
2023/03/09 06:25:38;;;;;;;10.80;7.90;;;1.20;99.90;;;;;;4855665;29;20987;-58
2023/03/09 06:28:06;;;;;;;10.13;7.67;;;1.40;99.90;;;;;;4842089;29;21035;-58
2023/03/09 06:30:39;;;;;;;10.47;7.80;;;1.30;99.90;;;;;;4839848;29;20594;-52
2023/03/09 06:33:09;;;;;;;13.77;8.77;;;1.40;99.90;;;;;;4832781;29;20834;-52
2023/03/09 06:35:40;;;;;;;12.93;8.60;;;1.50;99.90;;;;;;4826690;29;20534;-52
2023/03/09 06:38:11;;;;;;;17.40;8.90;;;1.60;99.90;;;;;;4858139;29;20472;-52
2023/03/09 06:40:41;;;;;;;12.77;8.27;;;1.80;99.90;;;;;;4830558;29;20512;-51
2023/03/09 06:43:11;;;;;;;11.07;8.67;;;1.80;99.90;;;;;;4849407;29;20488;-51
2023/03/09 06:45:39;;;;;;;14.97;9.07;;;1.80;99.90;;;;;;4853968;29;20545;-51
2023/03/09 06:48:10;;;;;;;14.83;10.90;;;2.00;99.90;;;;;;4843389;29;20512;-50
2023/03/09 06:50:40;;;;;;;16.60;9.47;;;1.90;99.90;;;;;;4858669;29;20507;-50
2023/03/09 06:53:12;;;;;;;14.97;10.20;;;2.00;99.90;;;;;;4840939;29;21693;-51
2023/03/09 06:55:43;;;;;;;13.27;9.53;;;1.80;99.90;;;;;;4842815;29;20492;-51
2023/03/09 06:58:12;;;;;;;16.27;9.40;;;1.60;99.90;;;;;;4844634;29;20465;-51
2023/03/09 07:00:46;;;;;;;16.63;9.70;;;1.50;99.90;;;;;;4842223;29;20495;-51
2023/03/09 07:03:17;;;;;;;15.83;9.97;;;1.60;99.90;;;;;;4843093;29;20567;-51
2023/03/09 07:05:49;;;;;;;11.90;9.07;;;1.50;99.90;;;;;;4844153;29;20471;-50
2023/03/09 07:08:18;;;;;;;14.20;9.73;;;1.50;99.90;;;;;;4843629;29;20560;-50
2023/03/09 07:10:46;;;;;;;12.20;9.00;;;1.60;99.90;;;;;;4844255;29;20508;-50
2023/03/09 07:13:15;;;;;;;14.23;9.90;;;1.70;99.90;;;;;;4854151;29;20472;-52
2023/03/09 07:15:43;;;;;;;13.33;9.53;;;1.70;99.90;;;;;;4851035;29;20495;-52
2023/03/09 07:18:11;;;;;;;14.80;9.07;;;1.70;99.90;;;;;;4838454;29;20574;-49
2023/03/09 07:20:41;;;;;;;12.70;9.23;;;1.80;99.90;;;;;;4841264;29;20485;-51
2023/03/09 07:23:10;;;;;;;13.80;9.70;;;1.80;99.90;;;;;;4839926;29;20808;-52
2023/03/09 07:25:40;;;;;;;13.93;9.27;;;1.70;99.90;;;;;;4840230;29;20978;-50
2023/03/09 07:28:09;;;;;;;13.47;9.80;;;1.80;99.90;;;;;;4840156;29;20478;-52
2023/03/09 07:30:37;;;;;;;11.67;9.13;;;1.70;99.90;;;;;;4838992;29;20492;-51
2023/03/09 07:33:06;;;;;;;15.40;9.87;;;1.90;99.90;;;;;;4839761;29;20474;-51
2023/03/09 07:35:39;;;;;;;14.83;9.97;;;1.90;99.90;;;;;;4838697;29;21002;-50
2023/03/09 07:38:07;;;;;;;16.00;9.80;;;1.90;99.90;;;;;;4839862;29;20480;-52
2023/03/09 07:40:36;;;;;;;14.00;9.70;;;1.80;99.90;;;;;;4839100;29;20541;-51
2023/03/09 07:43:06;;;;;;;13.53;10.00;;;1.90;99.90;;;;;;4841391;29;20492;-51
2023/03/09 07:45:54;;;;;;;12.07;9.40;;;1.90;99.90;;;;;;4844918;29;20501;-51
2023/03/09 07:48:23;;;;;;;15.27;9.97;;;2.00;99.90;;;;;;4839528;29;20963;-50
2023/03/09 07:50:57;;;;;;;12.90;9.63;;;2.00;99.90;;;;;;4839305;29;20476;-51
2023/03/09 07:53:26;;;;;;;13.07;9.77;;;2.10;99.90;;;;;;4839740;29;20823;-51
2023/03/09 07:55:56;;;;;;;12.07;9.17;;;2.20;99.90;;;;;;4839511;29;20544;-52
2023/03/09 07:58:26;;;;;;;13.87;9.93;;;2.20;99.90;;;;;;4839300;29;20487;-52
2023/03/09 08:00:54;;;;;;;12.63;9.03;;;2.20;99.90;;;;;;4838791;29;20491;-50
2023/03/09 08:03:22;;;;;;;14.87;9.63;;;2.30;99.90;;;;;;4839160;29;20482;-50
2023/03/09 08:05:54;;;;;;;13.07;9.60;;;2.30;99.90;;;;;;4839176;29;20562;-52
2023/03/09 08:08:23;;;;;;;12.73;9.47;;;2.30;99.90;;;;;;4839158;29;20482;-52
2023/03/09 08:10:52;;;;;;;12.27;9.13;;;2.40;99.90;;;;;;4838327;29;20623;-51
2023/03/09 08:13:22;;;;;;;12.70;10.13;;;2.40;99.90;;;;;;4840834;29;21014;-52
2023/03/09 08:15:52;;;;;;;14.10;10.03;;;2.40;99.90;;;;;;4840081;29;20507;-51
2023/03/09 08:18:20;;;;;;;12.83;9.90;;;2.50;99.90;;;;;;4840882;29;20476;-51
2023/03/09 08:20:48;;;;;;;14.07;10.30;;;2.70;99.90;;;;;;4837093;29;20478;-49
2023/03/09 08:23:19;;;;;;;14.27;10.23;;;2.80;99.90;;;;;;4836487;29;20474;-52
2023/03/09 08:25:54;;;;;;;15.47;10.03;;;2.90;99.90;;;;;;4852293;29;20465;-52
2023/03/09 08:28:22;;;;;;;14.33;11.03;;;3.20;99.90;;;;;;4837401;29;20490;-52
2023/03/09 08:30:52;;;;;;;13.83;10.53;;;3.30;99.90;;;;;;4836963;29;20499;-49
2023/03/09 08:33:20;;;;;;;13.80;10.00;;;3.30;99.90;;;;;;4837177;29;20953;-50
2023/03/09 08:35:48;;;;;;;14.03;9.50;;;3.40;99.90;;;;;;4836039;29;20482;-51
2023/03/09 08:38:16;;;;;;;16.30;11.20;;;3.60;99.90;;;;;;4837839;29;20472;-53
2023/03/09 08:40:44;;;;;;;14.40;11.37;;;3.80;99.90;;;;;;4838184;29;20465;-51
2023/03/09 08:43:13;;;;;;;17.10;11.17;;;4.00;99.90;;;;;;4838511;29;20870;-53
2023/03/09 08:45:41;;;;;;;15.43;10.83;;;4.30;99.90;;;;;;4838765;29;20483;-52
2023/03/09 08:48:10;;;;;;;13.30;10.33;;;4.20;99.90;;;;;;4837406;29;20483;-51
2023/03/09 08:50:40;;;;;;;15.80;11.30;;;4.30;99.90;;;;;;4838152;29;20481;-51
2023/03/09 08:53:08;;;;;;;15.67;10.77;;;4.20;99.90;;;;;;4838230;29;21017;-52
2023/03/09 08:55:36;;;;;;;13.70;10.37;;;4.30;99.90;;;;;;4837888;29;20985;-51
2023/03/09 08:58:04;;;;;;;14.33;11.33;;;4.30;99.90;;;;;;4838155;29;20488;-51
2023/03/09 09:00:32;;;;;;;14.20;10.87;;;4.30;99.90;;;;;;4835499;29;20487;-53
2023/03/09 09:03:00;;;;;;;15.27;11.13;;;4.30;99.90;;;;;;4838630;29;20499;-52
2023/03/09 09:05:30;;;;;;;15.73;10.93;;;4.50;99.90;;;;;;4837918;29;20903;-52
2023/03/09 09:07:58;;;;;;;15.07;11.63;;;4.50;99.90;;;;;;4837496;29;20521;-52
2023/03/09 09:10:26;;;;;;;16.33;11.10;;;4.60;99.90;;;;;;4836823;29;20508;-50
2023/03/09 09:13:03;;;;;;;13.77;10.50;;;4.60;99.90;;;;;;4838528;29;20471;-51
2023/03/09 09:15:31;;;;;;;14.30;10.77;;;4.90;99.90;;;;;;4838777;29;20487;-51
2023/03/09 09:17:59;;;;;;;17.87;10.87;;;5.10;99.90;;;;;;4837303;29;20530;-54
2023/03/09 09:20:27;;;;;;;12.53;10.03;;;5.30;99.90;;;;;;4838140;29;20483;-51
2023/03/09 09:22:57;;;;;;;15.47;11.17;;;5.40;99.90;;;;;;4836148;29;20510;-52
2023/03/09 09:25:25;;;;;;;14.33;11.60;;;5.60;99.90;;;;;;4835367;29;20995;-50
2023/03/09 09:27:53;;;;;;;16.33;11.37;;;5.70;99.90;;;;;;4837809;29;20829;-52
2023/03/09 09:30:22;;;;;;;16.10;11.93;;;6.00;99.90;;;;;;4838044;29;20476;-52
2023/03/09 09:32:50;;;;;;;13.73;11.47;;;5.80;99.90;;;;;;4836346;29;20527;-52
2023/03/09 09:35:18;;;;;;;13.17;10.50;;;5.80;99.90;;;;;;4837258;29;20468;-50
2023/03/09 09:37:46;;;;;;;14.40;11.97;;;5.60;99.90;;;;;;4837886;29;20247;-52
2023/03/09 09:40:17;;;;;;;14.87;11.30;;;5.70;99.90;;;;;;4837959;29;20802;-52
2023/03/09 09:42:45;;;;;;;14.80;11.50;;;5.80;99.90;;;;;;4838519;29;20571;-51
2023/03/09 09:45:37;;;;;;;13.77;11.30;;;5.80;99.90;;;;;;4836580;29;20476;-54
2023/03/09 09:48:08;;;;;;;16.10;11.33;;;5.80;99.90;;;;;;4837404;29;20249;-51
2023/03/09 09:50:50;;;;;;;14.13;11.30;;;5.80;99.90;;;;;;4841450;29;20483;-51
2023/03/09 09:53:26;;;;;;;15.10;11.63;;;5.80;99.90;;;;;;4841655;29;20227;-52
2023/03/09 09:55:56;;;;;;;13.93;11.60;;;5.80;99.90;;;;;;4841154;29;20238;-50
2023/03/09 09:58:33;;;;;;;13.00;11.63;;;5.60;99.90;;;;;;4841128;29;20494;-51
2023/03/09 10:01:05;;;;;;;14.40;10.83;;;5.60;99.90;;;;;;4841273;29;20241;-53
2023/03/09 10:03:38;;;;;;;13.47;11.37;;;5.60;99.90;;;;;;4841128;29;20244;-51
2023/03/09 10:06:12;;;;;;;12.70;10.27;;;5.80;99.90;;;;;;4840753;29;20316;-52
2023/03/09 10:08:45;;;;;;;13.43;11.03;;;5.80;99.90;;;;;;4842019;29;20230;-52
2023/03/09 10:11:21;;;;;;;13.60;11.03;;;5.80;99.90;;;;;;4841120;29;20237;-52
2023/03/09 10:13:54;;;;;;;13.57;11.53;;;5.60;99.90;;;;;;4841334;29;20669;-52
2023/03/09 10:16:27;;;;;;;13.23;11.63;;;5.60;99.90;;;;;;4841599;29;21027;-50
2023/03/09 10:18:59;;;;;;;14.00;11.43;;;5.60;99.90;;;;;;4841040;29;20723;-50
2023/03/09 10:21:35;;;;;;;15.30;11.50;;;5.60;99.90;;;;;;4841199;29;20238;-52
2023/03/09 10:24:15;;;;;;;15.33;11.47;;;5.50;99.90;;;;;;4841134;29;20241;-51
2023/03/09 10:26:49;;;;;;;13.37;11.17;;;5.60;99.90;;;;;;4842286;29;20274;-52
2023/03/09 10:29:24;;;;;;;14.40;11.10;;;5.60;99.90;;;;;;4840160;29;20790;-51
2023/03/09 10:31:58;;;;;;;13.30;10.00;;;5.50;99.90;;;;;;4840540;29;20238;-51
2023/03/09 10:34:27;;;;;;;13.23;10.80;;;5.50;99.90;;;;;;4840746;29;20258;-51
2023/03/09 10:37:01;;;;;;;12.90;11.17;;;5.60;99.90;;;;;;4841049;29;20569;-53
2023/03/09 10:39:34;;;;;;;13.97;10.43;;;5.60;99.90;;;;;;4839626;29;20231;-53
2023/03/09 10:42:17;;;;;;;11.80;10.13;;;5.60;99.90;;;;;;4841036;29;20338;-54
2023/03/09 10:45:03;;;;;;;13.17;9.97;;;5.50;99.90;;;;;;4839976;29;20324;-52
2023/03/09 10:47:51;;;;;;;12.83;10.77;;;5.50;99.90;;;;;;4840596;29;20295;-52
2023/03/09 10:50:21;;;;;;;12.00;9.60;;;5.60;99.90;;;;;;4839921;29;20243;-52
2023/03/09 10:52:53;;;;;;;11.10;9.60;;;5.80;99.90;;;;;;4840357;29;20695;-52
2023/03/09 10:55:36;;;;;;;11.13;9.77;;;5.80;99.90;;;;;;4840388;29;20708;-50
2023/03/09 10:58:17;;;;;;;10.10;8.53;;;5.50;99.90;;;;;;4839837;29;20274;-53
2023/03/09 11:01:03;;;;;;;10.87;9.07;;;5.60;99.90;;;;;;4840577;29;20253;-52
2023/03/09 11:03:37;;;;;;;9.60;8.60;;;5.60;99.90;;;;;;4838983;29;20591;-50
2023/03/09 11:06:11;;;;;;;9.60;8.17;;;5.60;99.90;;;;;;4839872;29;20247;-51
2023/03/09 11:08:41;;;;;;;11.17;9.17;;;5.80;99.90;;;;;;4839470;29;20712;-50
2023/03/09 11:11:29;;;;;;;11.63;8.60;;;5.90;99.90;;;;;;4840250;29;20235;-52
2023/03/09 11:13:59;;;;;;;10.97;9.57;;;5.90;99.90;;;;;;4840224;29;20255;-50
2023/03/09 11:16:28;;;;;;;10.87;8.87;;;6.10;99.90;;;;;;4839991;29;20238;-50
2023/03/09 11:19:11;;;;;;;8.63;7.47;;;6.30;99.90;;;;;;4839148;29;20281;-51
2023/03/09 11:21:43;;;;;;;12.17;8.40;;;6.20;99.90;;;;;;4839995;29;20227;-51
2023/03/09 11:24:15;;;;;;;8.93;7.73;;;6.30;99.90;;;;;;4839711;29;20232;-52
2023/03/09 11:26:50;;;;;;;10.73;7.80;;;6.40;99.90;;;;;;4839779;29;20257;-53
2023/03/09 11:29:28;;;;;;;9.77;8.47;;;6.50;99.90;;;;;;4839191;29;20235;-52
2023/03/09 11:31:57;;;;;;;11.00;8.40;;;6.40;99.90;;;;;;4839986;29;20755;-52
2023/03/09 11:34:28;;;;;;;10.73;8.20;;;6.20;99.90;;;;;;4852722;29;20239;-52
2023/03/09 11:37:00;;;;;;;8.90;8.00;;;6.20;99.90;;;;;;4838998;29;20227;-52
2023/03/09 11:39:37;;;;;;;10.13;8.00;;;6.30;99.90;;;;;;4838993;29;20710;-51
2023/03/09 11:42:13;;;;;;;9.30;6.87;;;6.30;99.90;;;;;;4839122;29;20239;-50
2023/03/09 11:44:45;;;;;;;8.37;7.07;;;6.00;99.90;;;;;;4838672;29;20245;-52
2023/03/09 11:47:26;;;;;;;8.80;7.33;;;5.90;99.90;;;;;;4838315;29;20239;-51
2023/03/09 11:49:55;;;;;;;9.47;7.20;;;5.90;99.90;;;;;;4837456;29;20238;-52
2023/03/09 11:52:28;;;;;;;8.17;6.90;;;6.10;99.90;;;;;;4838647;29;20590;-52
2023/03/09 11:55:00;;;;;;;8.67;7.37;;;6.20;99.90;;;;;;4840044;29;20233;-51
2023/03/09 11:57:29;;;;;;;8.07;6.60;;;6.30;99.90;;;;;;4838554;29;20733;-52
2023/03/09 12:00:05;;;;;;;7.63;6.90;;;6.50;99.90;;;;;;4837706;29;20236;-52
2023/03/09 12:02:48;;;;;;;7.50;6.33;;;6.70;99.90;;;;;;4837764;29;20724;-50
2023/03/09 12:05:17;;;;;;;6.90;6.20;;;6.60;99.90;;;;;;4838317;29;20315;-53
2023/03/09 12:07:58;;;;;;;8.53;6.43;;;6.60;99.90;;;;;;4837489;29;20322;-52
2023/03/09 12:10:30;;;;;;;8.57;6.57;;;6.70;99.90;;;;;;4837410;29;20231;-52
2023/03/09 12:13:04;;;;;;;7.13;6.13;;;6.50;99.90;;;;;;4837245;29;20236;-51
2023/03/09 12:15:37;;;;;;;7.90;6.23;;;6.30;99.90;;;;;;4838246;29;20247;-50
2023/03/09 12:18:08;;;;;;;8.23;6.03;;;6.30;99.90;;;;;;4840450;29;20243;-52
2023/03/09 12:20:40;;;;;;;6.93;6.10;;;6.40;99.90;;;;;;4836819;29;20246;-50
2023/03/09 12:23:41;;;;;;;10.00;6.20;;;6.40;99.90;;;;;;4837375;29;20247;-49
2023/03/09 12:26:22;;;;;;;9.30;7.10;;;6.40;99.90;;;;;;4837628;29;20266;-51
2023/03/09 12:29:05;;;;;;;6.70;5.73;;;6.40;99.90;;;;;;4837242;29;20246;-51
2023/03/09 12:31:36;;;;;;;6.13;5.37;;;6.50;99.90;;;;;;4836948;29;20285;-52
2023/03/09 12:34:26;;;;;;;7.67;6.40;;;6.50;99.90;;;;;;4837085;29;20231;-52
2023/03/09 12:37:15;;;;;;;9.23;6.20;;;6.50;99.90;;;;;;4837261;29;20753;-52
2023/03/09 12:39:45;;;;;;;6.60;5.87;;;6.60;99.90;;;;;;4837087;29;20759;-52
2023/03/09 12:42:37;;;;;;;7.27;5.57;;;6.50;99.90;;;;;;4837159;29;20235;-50
2023/03/09 12:45:26;;;;;;;7.40;6.10;;;6.50;99.90;;;;;;4837928;29;20313;-51
2023/03/09 12:48:02;;;;;;;7.97;6.30;;;6.50;99.90;;;;;;4839077;29;20239;-53
2023/03/09 12:50:49;;;;;;;7.53;6.73;;;6.40;99.90;;;;;;4839193;29;20230;-52
2023/03/09 12:53:19;;;;;;;7.63;6.00;;;6.20;99.90;;;;;;4840000;29;20250;-52
2023/03/09 12:55:53;;;;;;;7.30;5.93;;;6.10;99.90;;;;;;4837659;29;20246;-51
2023/03/09 12:58:43;;;;;;;7.13;5.73;;;6.10;99.90;;;;;;4838602;29;20235;-52
2023/03/09 13:01:28;;;;;;;7.60;5.80;;;6.20;99.90;;;;;;4838369;29;20641;-50
2023/03/09 13:04:12;;;;;;;8.13;6.03;;;6.30;99.90;;;;;;4837063;29;20645;-51
2023/03/09 13:06:44;;;;;;;8.70;6.27;;;6.40;99.90;;;;;;4837315;29;20231;-52
2023/03/09 13:09:22;;;;;;;6.83;5.63;;;6.50;99.90;;;;;;4836883;29;20259;-52
2023/03/09 13:12:00;;;;;;;6.50;5.43;;;6.70;99.90;;;;;;4837385;29;20330;-53
2023/03/09 13:15:11;;;;;;;6.77;5.83;;;6.70;99.90;;;;;;4837544;29;20243;-51